sensor_id;sensor_type;location;lat;lon;timestamp;P1;durP1;ratioP1;P2;durP2;ratioP2
32535;SDS011;18974;50.838;4.636;2022-07-29T00:00:43;3.38;;;1.77;;
32535;SDS011;18974;50.838;4.636;2022-07-29T00:03:12;7.40;;;1.08;;
32535;SDS011;18974;50.838;4.636;2022-07-29T00:05:39;3.72;;;1.20;;
32535;SDS011;18974;50.838;4.636;2022-07-29T00:08:06;5.07;;;1.15;;
32535;SDS011;18974;50.838;4.636;2022-07-29T00:10:33;4.70;;;1.23;;
32535;SDS011;18974;50.838;4.636;2022-07-29T00:12:59;6.50;;;1.50;;
32535;SDS011;18974;50.838;4.636;2022-07-29T00:15:25;4.82;;;1.20;;
32535;SDS011;18974;50.838;4.636;2022-07-29T00:17:51;3.28;;;1.35;;
32535;SDS011;18974;50.838;4.636;2022-07-29T00:20:16;4.63;;;1.30;;
32535;SDS011;18974;50.838;4.636;2022-07-29T00:22:43;2.63;;;1.17;;
32535;SDS011;18974;50.838;4.636;2022-07-29T00:25:09;5.30;;;1.38;;
32535;SDS011;18974;50.838;4.636;2022-07-29T00:27:34;4.05;;;1.42;;
32535;SDS011;18974;50.838;4.636;2022-07-29T00:30:01;1.98;;;1.10;;
32535;SDS011;18974;50.838;4.636;2022-07-29T00:32:28;3.13;;;1.33;;
32535;SDS011;18974;50.838;4.636;2022-07-29T00:34:53;2.85;;;1.50;;
32535;SDS011;18974;50.838;4.636;2022-07-29T00:37:37;2.97;;;1.30;;
32535;SDS011;18974;50.838;4.636;2022-07-29T00:40:03;3.17;;;1.63;;
32535;SDS011;18974;50.838;4.636;2022-07-29T00:42:29;2.20;;;1.25;;
32535;SDS011;18974;50.838;4.636;2022-07-29T00:44:55;4.50;;;1.33;;
32535;SDS011;18974;50.838;4.636;2022-07-29T00:47:21;3.67;;;1.48;;
32535;SDS011;18974;50.838;4.636;2022-07-29T00:49:46;3.60;;;1.35;;
32535;SDS011;18974;50.838;4.636;2022-07-29T00:52:12;4.60;;;1.67;;
32535;SDS011;18974;50.838;4.636;2022-07-29T00:54:39;3.05;;;1.42;;
32535;SDS011;18974;50.838;4.636;2022-07-29T00:57:05;4.00;;;1.58;;
32535;SDS011;18974;50.838;4.636;2022-07-29T00:59:33;3.10;;;1.35;;
32535;SDS011;18974;50.838;4.636;2022-07-29T01:01:59;2.92;;;1.58;;
32535;SDS011;18974;50.838;4.636;2022-07-29T01:04:25;5.10;;;1.60;;
32535;SDS011;18974;50.838;4.636;2022-07-29T01:06:51;4.18;;;1.25;;
32535;SDS011;18974;50.838;4.636;2022-07-29T01:09:19;3.45;;;1.50;;
32535;SDS011;18974;50.838;4.636;2022-07-29T01:11:45;3.13;;;1.23;;
32535;SDS011;18974;50.838;4.636;2022-07-29T01:14:12;3.97;;;1.85;;
32535;SDS011;18974;50.838;4.636;2022-07-29T01:16:42;7.40;;;1.52;;
32535;SDS011;18974;50.838;4.636;2022-07-29T01:19:38;2.30;;;2.00;;
32535;SDS011;18974;50.838;4.636;2022-07-29T01:30:55;5.40;;;1.60;;
32535;SDS011;18974;50.838;4.636;2022-07-29T01:33:22;1.77;;;1.40;;
32535;SDS011;18974;50.838;4.636;2022-07-29T01:36:14;5.80;;;1.85;;
32535;SDS011;18974;50.838;4.636;2022-07-29T01:38:51;6.68;;;1.50;;
32535;SDS011;18974;50.838;4.636;2022-07-29T01:41:23;2.72;;;1.60;;
32535;SDS011;18974;50.838;4.636;2022-07-29T01:43:56;4.95;;;1.90;;
32535;SDS011;18974;50.838;4.636;2022-07-29T01:46:27;3.42;;;1.50;;
32535;SDS011;18974;50.838;4.636;2022-07-29T01:49:02;9.30;;;1.77;;
32535;SDS011;18974;50.838;4.636;2022-07-29T01:51:49;4.18;;;1.90;;
32535;SDS011;18974;50.838;4.636;2022-07-29T01:57:07;4.78;;;1.75;;
32535;SDS011;18974;50.838;4.636;2022-07-29T01:59:36;4.88;;;1.77;;
32535;SDS011;18974;50.838;4.636;2022-07-29T02:02:03;3.92;;;1.60;;
32535;SDS011;18974;50.838;4.636;2022-07-29T02:04:33;5.90;;;1.50;;
32535;SDS011;18974;50.838;4.636;2022-07-29T02:07:01;5.60;;;1.50;;
32535;SDS011;18974;50.838;4.636;2022-07-29T02:09:30;7.07;;;1.60;;
32535;SDS011;18974;50.838;4.636;2022-07-29T02:11:58;7.00;;;1.70;;
32535;SDS011;18974;50.838;4.636;2022-07-29T02:14:26;4.28;;;1.65;;
32535;SDS011;18974;50.838;4.636;2022-07-29T02:16:54;5.63;;;2.10;;
32535;SDS011;18974;50.838;4.636;2022-07-29T02:19:23;8.70;;;1.98;;
32535;SDS011;18974;50.838;4.636;2022-07-29T02:21:53;4.97;;;2.33;;
32535;SDS011;18974;50.838;4.636;2022-07-29T02:24:20;3.88;;;1.98;;
32535;SDS011;18974;50.838;4.636;2022-07-29T02:26:48;4.32;;;2.20;;
32535;SDS011;18974;50.838;4.636;2022-07-29T02:29:15;4.10;;;2.30;;
32535;SDS011;18974;50.838;4.636;2022-07-29T02:31:42;4.63;;;2.30;;
32535;SDS011;18974;50.838;4.636;2022-07-29T02:34:12;6.85;;;1.60;;
32535;SDS011;18974;50.838;4.636;2022-07-29T02:36:40;5.13;;;2.10;;
32535;SDS011;18974;50.838;4.636;2022-07-29T02:39:08;5.15;;;1.98;;
32535;SDS011;18974;50.838;4.636;2022-07-29T02:44:21;3.70;;;2.03;;
32535;SDS011;18974;50.838;4.636;2022-07-29T02:52:31;2.78;;;1.90;;
32535;SDS011;18974;50.838;4.636;2022-07-29T02:55:03;4.22;;;2.08;;
32535;SDS011;18974;50.838;4.636;2022-07-29T02:57:34;4.90;;;2.35;;
32535;SDS011;18974;50.838;4.636;2022-07-29T03:00:07;4.63;;;2.17;;
32535;SDS011;18974;50.838;4.636;2022-07-29T03:02:38;4.45;;;2.10;;
32535;SDS011;18974;50.838;4.636;2022-07-29T03:05:08;6.70;;;2.55;;
32535;SDS011;18974;50.838;4.636;2022-07-29T03:07:36;7.70;;;3.03;;
32535;SDS011;18974;50.838;4.636;2022-07-29T03:10:04;6.05;;;2.10;;
32535;SDS011;18974;50.838;4.636;2022-07-29T03:12:31;4.53;;;2.10;;
32535;SDS011;18974;50.838;4.636;2022-07-29T03:14:57;4.53;;;2.45;;
32535;SDS011;18974;50.838;4.636;2022-07-29T03:17:25;4.90;;;2.05;;
32535;SDS011;18974;50.838;4.636;2022-07-29T03:19:51;6.75;;;2.33;;
32535;SDS011;18974;50.838;4.636;2022-07-29T03:22:18;2.50;;;1.73;;
32535;SDS011;18974;50.838;4.636;2022-07-29T03:24:44;7.70;;;2.17;;
32535;SDS011;18974;50.838;4.636;2022-07-29T03:27:10;8.90;;;2.40;;
32535;SDS011;18974;50.838;4.636;2022-07-29T03:29:35;3.50;;;2.00;;
32535;SDS011;18974;50.838;4.636;2022-07-29T03:32:02;3.95;;;2.10;;
32535;SDS011;18974;50.838;4.636;2022-07-29T03:34:29;2.88;;;1.98;;
32535;SDS011;18974;50.838;4.636;2022-07-29T03:36:54;3.60;;;2.33;;
32535;SDS011;18974;50.838;4.636;2022-07-29T03:39:21;4.60;;;2.13;;
32535;SDS011;18974;50.838;4.636;2022-07-29T03:41:52;3.67;;;1.92;;
32535;SDS011;18974;50.838;4.636;2022-07-29T03:44:20;4.15;;;2.42;;
32535;SDS011;18974;50.838;4.636;2022-07-29T03:46:46;4.78;;;2.10;;
32535;SDS011;18974;50.838;4.636;2022-07-29T03:49:15;4.47;;;2.42;;
32535;SDS011;18974;50.838;4.636;2022-07-29T03:51:43;4.95;;;2.25;;
32535;SDS011;18974;50.838;4.636;2022-07-29T03:54:09;3.95;;;2.45;;
32535;SDS011;18974;50.838;4.636;2022-07-29T03:56:40;4.75;;;2.10;;
32535;SDS011;18974;50.838;4.636;2022-07-29T03:59:11;4.23;;;2.00;;
32535;SDS011;18974;50.838;4.636;2022-07-29T04:01:37;4.40;;;2.30;;
32535;SDS011;18974;50.838;4.636;2022-07-29T04:04:04;4.07;;;2.22;;
32535;SDS011;18974;50.838;4.636;2022-07-29T04:09:07;3.67;;;2.10;;
32535;SDS011;18974;50.838;4.636;2022-07-29T04:11:33;6.03;;;2.20;;
32535;SDS011;18974;50.838;4.636;2022-07-29T04:13:59;5.57;;;2.33;;
32535;SDS011;18974;50.838;4.636;2022-07-29T04:16:25;4.28;;;2.17;;
32535;SDS011;18974;50.838;4.636;2022-07-29T04:18:50;4.80;;;2.42;;
32535;SDS011;18974;50.838;4.636;2022-07-29T04:21:16;3.78;;;2.17;;
32535;SDS011;18974;50.838;4.636;2022-07-29T04:23:41;6.28;;;2.60;;
32535;SDS011;18974;50.838;4.636;2022-07-29T04:26:10;3.75;;;2.17;;
32535;SDS011;18974;50.838;4.636;2022-07-29T04:28:36;4.05;;;2.28;;
32535;SDS011;18974;50.838;4.636;2022-07-29T04:31:03;4.50;;;2.78;;
32535;SDS011;18974;50.838;4.636;2022-07-29T04:33:28;9.50;;;3.70;;
32535;SDS011;18974;50.838;4.636;2022-07-29T04:35:54;3.85;;;2.88;;
32535;SDS011;18974;50.838;4.636;2022-07-29T04:38:20;5.90;;;2.30;;
32535;SDS011;18974;50.838;4.636;2022-07-29T04:40:45;4.28;;;2.40;;
32535;SDS011;18974;50.838;4.636;2022-07-29T04:43:11;7.22;;;2.00;;
32535;SDS011;18974;50.838;4.636;2022-07-29T04:45:37;5.75;;;2.95;;
32535;SDS011;18974;50.838;4.636;2022-07-29T04:48:02;4.85;;;2.42;;
32535;SDS011;18974;50.838;4.636;2022-07-29T04:50:28;5.20;;;2.45;;
32535;SDS011;18974;50.838;4.636;2022-07-29T04:52:54;5.53;;;2.50;;
32535;SDS011;18974;50.838;4.636;2022-07-29T04:55:19;9.70;;;2.65;;
32535;SDS011;18974;50.838;4.636;2022-07-29T04:57:45;8.90;;;3.45;;
32535;SDS011;18974;50.838;4.636;2022-07-29T05:00:11;2.88;;;2.15;;
32535;SDS011;18974;50.838;4.636;2022-07-29T05:02:37;3.45;;;2.25;;
32535;SDS011;18974;50.838;4.636;2022-07-29T05:05:02;6.10;;;2.38;;
32535;SDS011;18974;50.838;4.636;2022-07-29T05:07:28;6.53;;;2.92;;
32535;SDS011;18974;50.838;4.636;2022-07-29T05:09:54;6.95;;;2.38;;
32535;SDS011;18974;50.838;4.636;2022-07-29T05:12:22;8.13;;;2.47;;
32535;SDS011;18974;50.838;4.636;2022-07-29T05:14:48;4.93;;;2.47;;
32535;SDS011;18974;50.838;4.636;2022-07-29T05:17:14;5.32;;;2.30;;
32535;SDS011;18974;50.838;4.636;2022-07-29T05:19:39;5.50;;;2.60;;
32535;SDS011;18974;50.838;4.636;2022-07-29T05:22:05;3.90;;;2.00;;
32535;SDS011;18974;50.838;4.636;2022-07-29T05:24:31;8.70;;;2.50;;
32535;SDS011;18974;50.838;4.636;2022-07-29T05:26:56;4.35;;;2.15;;
32535;SDS011;18974;50.838;4.636;2022-07-29T05:29:22;4.15;;;2.38;;
32535;SDS011;18974;50.838;4.636;2022-07-29T05:31:47;3.65;;;2.15;;
32535;SDS011;18974;50.838;4.636;2022-07-29T05:34:13;3.28;;;2.33;;
32535;SDS011;18974;50.838;4.636;2022-07-29T05:36:39;3.83;;;1.85;;
32535;SDS011;18974;50.838;4.636;2022-07-29T05:39:04;5.22;;;2.40;;
32535;SDS011;18974;50.838;4.636;2022-07-29T05:41:33;5.57;;;2.40;;
32535;SDS011;18974;50.838;4.636;2022-07-29T05:43:59;4.38;;;2.33;;
32535;SDS011;18974;50.838;4.636;2022-07-29T05:46:24;3.08;;;2.05;;
32535;SDS011;18974;50.838;4.636;2022-07-29T05:48:50;5.45;;;2.40;;
32535;SDS011;18974;50.838;4.636;2022-07-29T05:51:15;3.92;;;2.35;;
32535;SDS011;18974;50.838;4.636;2022-07-29T05:53:41;5.97;;;2.38;;
32535;SDS011;18974;50.838;4.636;2022-07-29T05:56:07;6.45;;;2.33;;
32535;SDS011;18974;50.838;4.636;2022-07-29T05:58:32;5.32;;;2.38;;
32535;SDS011;18974;50.838;4.636;2022-07-29T06:00:58;2.60;;;2.28;;
32535;SDS011;18974;50.838;4.636;2022-07-29T06:03:25;3.65;;;2.47;;
32535;SDS011;18974;50.838;4.636;2022-07-29T06:05:51;6.00;;;2.80;;
32535;SDS011;18974;50.838;4.636;2022-07-29T06:08:17;4.72;;;2.13;;
32535;SDS011;18974;50.838;4.636;2022-07-29T06:10:44;6.80;;;2.42;;
32535;SDS011;18974;50.838;4.636;2022-07-29T06:13:10;6.20;;;2.78;;
32535;SDS011;18974;50.838;4.636;2022-07-29T06:15:37;5.35;;;3.15;;
32535;SDS011;18974;50.838;4.636;2022-07-29T06:18:03;4.20;;;2.53;;
32535;SDS011;18974;50.838;4.636;2022-07-29T06:20:32;9.93;;;2.97;;
32535;SDS011;18974;50.838;4.636;2022-07-29T06:22:58;4.30;;;2.80;;
32535;SDS011;18974;50.838;4.636;2022-07-29T06:25:24;7.97;;;2.90;;
32535;SDS011;18974;50.838;4.636;2022-07-29T06:27:51;4.80;;;2.95;;
32535;SDS011;18974;50.838;4.636;2022-07-29T06:30:17;4.80;;;2.40;;
32535;SDS011;18974;50.838;4.636;2022-07-29T06:32:43;6.40;;;2.63;;
32535;SDS011;18974;50.838;4.636;2022-07-29T06:35:09;6.47;;;2.67;;
32535;SDS011;18974;50.838;4.636;2022-07-29T06:37:34;5.50;;;2.72;;
32535;SDS011;18974;50.838;4.636;2022-07-29T06:40:00;4.85;;;3.35;;
32535;SDS011;18974;50.838;4.636;2022-07-29T06:42:44;5.85;;;2.85;;
32535;SDS011;18974;50.838;4.636;2022-07-29T06:45:11;6.55;;;2.80;;
32535;SDS011;18974;50.838;4.636;2022-07-29T06:47:37;3.67;;;2.85;;
32535;SDS011;18974;50.838;4.636;2022-07-29T06:50:03;5.18;;;2.70;;
32535;SDS011;18974;50.838;4.636;2022-07-29T06:52:29;3.80;;;2.80;;
32535;SDS011;18974;50.838;4.636;2022-07-29T06:54:55;5.80;;;2.72;;
32535;SDS011;18974;50.838;4.636;2022-07-29T06:57:21;5.13;;;2.85;;
32535;SDS011;18974;50.838;4.636;2022-07-29T06:59:47;5.63;;;2.67;;
32535;SDS011;18974;50.838;4.636;2022-07-29T07:02:13;5.50;;;2.70;;
32535;SDS011;18974;50.838;4.636;2022-07-29T07:04:39;8.38;;;3.30;;
32535;SDS011;18974;50.838;4.636;2022-07-29T07:07:04;10.00;;;3.35;;
32535;SDS011;18974;50.838;4.636;2022-07-29T07:09:30;7.30;;;3.20;;
32535;SDS011;18974;50.838;4.636;2022-07-29T07:11:56;6.32;;;3.50;;
32535;SDS011;18974;50.838;4.636;2022-07-29T07:14:21;4.93;;;2.55;;
32535;SDS011;18974;50.838;4.636;2022-07-29T07:16:47;6.60;;;3.22;;
32535;SDS011;18974;50.838;4.636;2022-07-29T07:19:13;5.95;;;2.90;;
32535;SDS011;18974;50.838;4.636;2022-07-29T07:21:38;4.32;;;2.63;;
32535;SDS011;18974;50.838;4.636;2022-07-29T07:24:04;8.90;;;3.45;;
32535;SDS011;18974;50.838;4.636;2022-07-29T07:26:30;5.68;;;3.13;;
32535;SDS011;18974;50.838;4.636;2022-07-29T07:28:56;6.20;;;2.78;;
32535;SDS011;18974;50.838;4.636;2022-07-29T07:31:21;5.32;;;2.75;;
32535;SDS011;18974;50.838;4.636;2022-07-29T07:33:47;5.22;;;2.92;;
32535;SDS011;18974;50.838;4.636;2022-07-29T07:36:13;4.53;;;3.03;;
32535;SDS011;18974;50.838;4.636;2022-07-29T07:38:39;4.43;;;2.50;;
32535;SDS011;18974;50.838;4.636;2022-07-29T07:41:04;5.05;;;3.33;;
32535;SDS011;18974;50.838;4.636;2022-07-29T07:43:30;5.28;;;2.92;;
32535;SDS011;18974;50.838;4.636;2022-07-29T07:45:56;3.47;;;2.65;;
32535;SDS011;18974;50.838;4.636;2022-07-29T07:48:22;3.75;;;2.70;;
32535;SDS011;18974;50.838;4.636;2022-07-29T07:50:47;6.75;;;2.42;;
32535;SDS011;18974;50.838;4.636;2022-07-29T07:53:14;6.10;;;2.65;;
32535;SDS011;18974;50.838;4.636;2022-07-29T07:55:40;4.00;;;2.53;;
32535;SDS011;18974;50.838;4.636;2022-07-29T07:58:06;4.13;;;2.60;;
32535;SDS011;18974;50.838;4.636;2022-07-29T08:00:33;4.15;;;2.63;;
32535;SDS011;18974;50.838;4.636;2022-07-29T08:02:58;6.53;;;2.75;;
32535;SDS011;18974;50.838;4.636;2022-07-29T08:05:24;4.85;;;2.78;;
32535;SDS011;18974;50.838;4.636;2022-07-29T08:07:50;16.88;;;7.50;;
32535;SDS011;18974;50.838;4.636;2022-07-29T08:10:16;10.77;;;5.80;;
32535;SDS011;18974;50.838;4.636;2022-07-29T08:13:06;3.70;;;2.90;;
32535;SDS011;18974;50.838;4.636;2022-07-29T08:15:33;6.82;;;2.42;;
32535;SDS011;18974;50.838;4.636;2022-07-29T08:17:59;3.42;;;2.25;;
32535;SDS011;18974;50.838;4.636;2022-07-29T08:20:26;5.60;;;2.60;;
32535;SDS011;18974;50.838;4.636;2022-07-29T08:22:52;4.75;;;2.50;;
32535;SDS011;18974;50.838;4.636;2022-07-29T08:25:18;5.32;;;2.40;;
32535;SDS011;18974;50.838;4.636;2022-07-29T08:27:46;5.90;;;2.45;;
32535;SDS011;18974;50.838;4.636;2022-07-29T08:30:12;3.50;;;1.95;;
32535;SDS011;18974;50.838;4.636;2022-07-29T08:32:37;4.32;;;1.83;;
32535;SDS011;18974;50.838;4.636;2022-07-29T08:35:03;4.93;;;2.63;;
32535;SDS011;18974;50.838;4.636;2022-07-29T08:37:29;6.43;;;2.50;;
32535;SDS011;18974;50.838;4.636;2022-07-29T08:39:55;4.03;;;2.20;;
32535;SDS011;18974;50.838;4.636;2022-07-29T08:42:20;3.88;;;2.13;;
32535;SDS011;18974;50.838;4.636;2022-07-29T08:44:46;4.55;;;1.85;;
32535;SDS011;18974;50.838;4.636;2022-07-29T08:47:13;2.80;;;1.85;;
32535;SDS011;18974;50.838;4.636;2022-07-29T08:49:39;7.55;;;2.13;;
32535;SDS011;18974;50.838;4.636;2022-07-29T08:52:05;4.00;;;1.83;;
32535;SDS011;18974;50.838;4.636;2022-07-29T08:54:31;8.82;;;1.90;;
32535;SDS011;18974;50.838;4.636;2022-07-29T08:56:58;4.07;;;1.70;;
32535;SDS011;18974;50.838;4.636;2022-07-29T08:59:26;5.35;;;1.60;;
32535;SDS011;18974;50.838;4.636;2022-07-29T09:01:55;4.03;;;1.65;;
32535;SDS011;18974;50.838;4.636;2022-07-29T09:04:24;4.55;;;1.80;;
32535;SDS011;18974;50.838;4.636;2022-07-29T09:06:52;2.60;;;2.05;;
32535;SDS011;18974;50.838;4.636;2022-07-29T09:09:19;9.98;;;2.20;;
32535;SDS011;18974;50.838;4.636;2022-07-29T09:11:45;3.58;;;1.70;;
32535;SDS011;18974;50.838;4.636;2022-07-29T09:14:12;3.10;;;1.63;;
32535;SDS011;18974;50.838;4.636;2022-07-29T09:19:25;2.15;;;1.48;;
32535;SDS011;18974;50.838;4.636;2022-07-29T09:27:08;4.50;;;2.33;;
32535;SDS011;18974;50.838;4.636;2022-07-29T09:29:58;3.28;;;1.55;;
32535;SDS011;18974;50.838;4.636;2022-07-29T09:32:26;2.95;;;1.50;;
32535;SDS011;18974;50.838;4.636;2022-07-29T09:37:41;4.50;;;1.42;;
32535;SDS011;18974;50.838;4.636;2022-07-29T09:40:26;1.92;;;1.20;;
32535;SDS011;18974;50.838;4.636;2022-07-29T09:42:53;1.88;;;1.50;;
32535;SDS011;18974;50.838;4.636;2022-07-29T09:45:29;3.67;;;1.40;;
32535;SDS011;18974;50.838;4.636;2022-07-29T09:47:56;1.15;;;1.00;;
32535;SDS011;18974;50.838;4.636;2022-07-29T09:55:57;2.28;;;1.20;;
32535;SDS011;18974;50.838;4.636;2022-07-29T09:58:22;1.38;;;1.15;;
32535;SDS011;18974;50.838;4.636;2022-07-29T10:00:49;4.28;;;1.40;;
32535;SDS011;18974;50.838;4.636;2022-07-29T10:03:16;2.75;;;1.55;;
32535;SDS011;18974;50.838;4.636;2022-07-29T10:05:42;7.10;;;1.73;;
32535;SDS011;18974;50.838;4.636;2022-07-29T10:08:09;4.75;;;1.23;;
32535;SDS011;18974;50.838;4.636;2022-07-29T10:10:38;2.78;;;1.50;;
32535;SDS011;18974;50.838;4.636;2022-07-29T10:13:07;6.00;;;1.70;;
32535;SDS011;18974;50.838;4.636;2022-07-29T10:15:39;2.53;;;1.27;;
32535;SDS011;18974;50.838;4.636;2022-07-29T10:18:09;4.90;;;1.63;;
32535;SDS011;18974;50.838;4.636;2022-07-29T10:20:36;4.70;;;1.58;;
32535;SDS011;18974;50.838;4.636;2022-07-29T10:23:03;3.78;;;1.60;;
32535;SDS011;18974;50.838;4.636;2022-07-29T10:25:29;4.00;;;1.60;;
32535;SDS011;18974;50.838;4.636;2022-07-29T10:27:55;3.22;;;1.15;;
32535;SDS011;18974;50.838;4.636;2022-07-29T10:30:21;5.97;;;1.60;;
32535;SDS011;18974;50.838;4.636;2022-07-29T10:32:54;5.25;;;1.38;;
32535;SDS011;18974;50.838;4.636;2022-07-29T10:38:36;2.40;;;1.23;;
32535;SDS011;18974;50.838;4.636;2022-07-29T10:44:09;1.92;;;1.42;;
32535;SDS011;18974;50.838;4.636;2022-07-29T10:46:39;4.38;;;1.40;;
32535;SDS011;18974;50.838;4.636;2022-07-29T10:49:18;2.10;;;1.30;;
32535;SDS011;18974;50.838;4.636;2022-07-29T10:51:57;2.05;;;1.30;;
32535;SDS011;18974;50.838;4.636;2022-07-29T10:57:30;2.95;;;1.30;;
32535;SDS011;18974;50.838;4.636;2022-07-29T11:05:17;4.78;;;1.40;;
32535;SDS011;18974;50.838;4.636;2022-07-29T11:10:37;4.32;;;1.60;;
32535;SDS011;18974;50.838;4.636;2022-07-29T11:13:04;3.63;;;1.50;;
32535;SDS011;18974;50.838;4.636;2022-07-29T11:15:29;8.65;;;1.48;;
32535;SDS011;18974;50.838;4.636;2022-07-29T11:18:19;2.95;;;1.33;;
32535;SDS011;18974;50.838;4.636;2022-07-29T11:20:45;5.57;;;1.80;;
32535;SDS011;18974;50.838;4.636;2022-07-29T11:23:29;2.78;;;1.52;;
32535;SDS011;18974;50.838;4.636;2022-07-29T11:31:33;3.33;;;1.58;;
32535;SDS011;18974;50.838;4.636;2022-07-29T11:39:34;2.08;;;1.42;;
32535;SDS011;18974;50.838;4.636;2022-07-29T11:44:58;2.05;;;1.25;;
32535;SDS011;18974;50.838;4.636;2022-07-29T11:47:31;3.40;;;1.25;;
32535;SDS011;18974;50.838;4.636;2022-07-29T11:50:00;3.10;;;1.50;;
32535;SDS011;18974;50.838;4.636;2022-07-29T11:55:03;3.90;;;1.27;;
32535;SDS011;18974;50.838;4.636;2022-07-29T11:57:29;3.92;;;1.35;;
32535;SDS011;18974;50.838;4.636;2022-07-29T11:59:55;4.00;;;1.20;;
32535;SDS011;18974;50.838;4.636;2022-07-29T12:02:23;4.10;;;1.33;;
32535;SDS011;18974;50.838;4.636;2022-07-29T12:04:52;5.55;;;1.77;;
32535;SDS011;18974;50.838;4.636;2022-07-29T12:07:19;3.40;;;1.40;;
32535;SDS011;18974;50.838;4.636;2022-07-29T12:09:55;3.05;;;1.40;;
32535;SDS011;18974;50.838;4.636;2022-07-29T12:12:21;3.83;;;1.38;;
32535;SDS011;18974;50.838;4.636;2022-07-29T12:14:48;3.65;;;1.10;;
32535;SDS011;18974;50.838;4.636;2022-07-29T12:17:27;2.22;;;1.27;;
32535;SDS011;18974;50.838;4.636;2022-07-29T12:19:54;2.85;;;1.38;;
32535;SDS011;18974;50.838;4.636;2022-07-29T12:22:27;2.42;;;1.30;;
32535;SDS011;18974;50.838;4.636;2022-07-29T12:25:16;4.85;;;1.30;;
32535;SDS011;18974;50.838;4.636;2022-07-29T12:27:43;4.28;;;1.50;;
32535;SDS011;18974;50.838;4.636;2022-07-29T12:30:10;3.95;;;1.23;;
32535;SDS011;18974;50.838;4.636;2022-07-29T12:35:04;4.15;;;1.30;;
32535;SDS011;18974;50.838;4.636;2022-07-29T12:37:38;7.05;;;1.50;;
32535;SDS011;18974;50.838;4.636;2022-07-29T12:40:06;3.92;;;1.63;;
32535;SDS011;18974;50.838;4.636;2022-07-29T12:42:33;4.55;;;1.33;;
32535;SDS011;18974;50.838;4.636;2022-07-29T12:44:59;4.03;;;1.52;;
32535;SDS011;18974;50.838;4.636;2022-07-29T12:47:26;3.22;;;1.48;;
32535;SDS011;18974;50.838;4.636;2022-07-29T12:52:42;3.35;;;1.55;;
32535;SDS011;18974;50.838;4.636;2022-07-29T12:55:10;3.42;;;1.52;;
32535;SDS011;18974;50.838;4.636;2022-07-29T12:57:54;6.70;;;1.48;;
32535;SDS011;18974;50.838;4.636;2022-07-29T13:00:23;2.97;;;1.60;;
32535;SDS011;18974;50.838;4.636;2022-07-29T13:02:56;3.83;;;1.80;;
32535;SDS011;18974;50.838;4.636;2022-07-29T13:05:22;3.63;;;1.40;;
32535;SDS011;18974;50.838;4.636;2022-07-29T13:07:49;3.33;;;1.50;;
32535;SDS011;18974;50.838;4.636;2022-07-29T13:10:20;2.83;;;1.50;;
32535;SDS011;18974;50.838;4.636;2022-07-29T13:15:53;6.00;;;1.35;;
32535;SDS011;18974;50.838;4.636;2022-07-29T13:18:33;6.07;;;1.40;;
32535;SDS011;18974;50.838;4.636;2022-07-29T13:21:14;8.52;;;1.88;;
32535;SDS011;18974;50.838;4.636;2022-07-29T13:23:41;3.75;;;1.40;;
32535;SDS011;18974;50.838;4.636;2022-07-29T13:26:10;4.97;;;1.45;;
32535;SDS011;18974;50.838;4.636;2022-07-29T13:28:36;2.08;;;1.30;;
32535;SDS011;18974;50.838;4.636;2022-07-29T13:31:02;5.10;;;2.20;;
32535;SDS011;18974;50.838;4.636;2022-07-29T13:33:29;2.33;;;1.40;;
32535;SDS011;18974;50.838;4.636;2022-07-29T13:35:55;4.18;;;1.75;;
32535;SDS011;18974;50.838;4.636;2022-07-29T13:38:21;3.25;;;1.63;;
32535;SDS011;18974;50.838;4.636;2022-07-29T13:40:47;4.13;;;1.30;;
32535;SDS011;18974;50.838;4.636;2022-07-29T13:43:12;2.42;;;1.40;;
32535;SDS011;18974;50.838;4.636;2022-07-29T13:45:38;28.80;;;2.60;;
32535;SDS011;18974;50.838;4.636;2022-07-29T13:48:04;5.78;;;1.88;;
32535;SDS011;18974;50.838;4.636;2022-07-29T13:50:31;6.07;;;2.00;;
32535;SDS011;18974;50.838;4.636;2022-07-29T13:52:57;2.88;;;1.48;;
32535;SDS011;18974;50.838;4.636;2022-07-29T13:55:23;5.18;;;1.48;;
32535;SDS011;18974;50.838;4.636;2022-07-29T13:57:49;3.60;;;1.35;;
32535;SDS011;18974;50.838;4.636;2022-07-29T14:00:14;4.53;;;1.52;;
32535;SDS011;18974;50.838;4.636;2022-07-29T14:02:41;96.47;;;6.57;;
32535;SDS011;18974;50.838;4.636;2022-07-29T14:05:07;27.08;;;3.30;;
32535;SDS011;18974;50.838;4.636;2022-07-29T14:07:34;10.57;;;2.45;;
32535;SDS011;18974;50.838;4.636;2022-07-29T14:10:01;3.80;;;2.00;;
32535;SDS011;18974;50.838;4.636;2022-07-29T14:12:26;12.25;;;2.00;;
32535;SDS011;18974;50.838;4.636;2022-07-29T14:14:52;4.45;;;2.03;;
32535;SDS011;18974;50.838;4.636;2022-07-29T14:17:18;3.22;;;2.00;;
32535;SDS011;18974;50.838;4.636;2022-07-29T14:19:43;6.57;;;1.83;;
32535;SDS011;18974;50.838;4.636;2022-07-29T14:22:09;5.97;;;1.63;;
32535;SDS011;18974;50.838;4.636;2022-07-29T14:24:35;5.70;;;1.95;;
32535;SDS011;18974;50.838;4.636;2022-07-29T14:27:01;14.13;;;1.90;;
32535;SDS011;18974;50.838;4.636;2022-07-29T14:29:27;3.88;;;2.33;;
32535;SDS011;18974;50.838;4.636;2022-07-29T14:31:53;3.88;;;1.80;;
32535;SDS011;18974;50.838;4.636;2022-07-29T14:34:18;9.23;;;1.92;;
32535;SDS011;18974;50.838;4.636;2022-07-29T14:36:44;8.98;;;2.28;;
32535;SDS011;18974;50.838;4.636;2022-07-29T14:39:10;6.85;;;1.98;;
32535;SDS011;18974;50.838;4.636;2022-07-29T14:41:36;13.07;;;2.22;;
32535;SDS011;18974;50.838;4.636;2022-07-29T14:44:03;3.80;;;1.85;;
32535;SDS011;18974;50.838;4.636;2022-07-29T14:46:28;5.90;;;2.03;;
32535;SDS011;18974;50.838;4.636;2022-07-29T14:48:54;5.63;;;1.67;;
32535;SDS011;18974;50.838;4.636;2022-07-29T14:51:20;11.45;;;2.22;;
32535;SDS011;18974;50.838;4.636;2022-07-29T14:53:46;2.70;;;1.50;;
32535;SDS011;18974;50.838;4.636;2022-07-29T14:56:11;1.90;;;1.30;;
32535;SDS011;18974;50.838;4.636;2022-07-29T14:58:37;6.70;;;1.77;;
32535;SDS011;18974;50.838;4.636;2022-07-29T15:01:03;3.63;;;1.50;;
32535;SDS011;18974;50.838;4.636;2022-07-29T15:03:29;5.63;;;1.92;;
32535;SDS011;18974;50.838;4.636;2022-07-29T15:05:54;3.45;;;1.70;;
32535;SDS011;18974;50.838;4.636;2022-07-29T15:08:20;5.18;;;1.70;;
32535;SDS011;18974;50.838;4.636;2022-07-29T15:10:46;3.58;;;1.67;;
32535;SDS011;18974;50.838;4.636;2022-07-29T15:13:12;4.22;;;1.55;;
32535;SDS011;18974;50.838;4.636;2022-07-29T15:15:38;5.80;;;1.73;;
32535;SDS011;18974;50.838;4.636;2022-07-29T15:18:03;12.43;;;2.50;;
32535;SDS011;18974;50.838;4.636;2022-07-29T15:20:29;8.02;;;2.28;;
32535;SDS011;18974;50.838;4.636;2022-07-29T15:22:55;2.40;;;1.38;;
32535;SDS011;18974;50.838;4.636;2022-07-29T15:25:24;3.25;;;1.50;;
32535;SDS011;18974;50.838;4.636;2022-07-29T15:27:50;2.95;;;1.73;;
32535;SDS011;18974;50.838;4.636;2022-07-29T15:30:16;6.22;;;1.77;;
32535;SDS011;18974;50.838;4.636;2022-07-29T15:32:45;2.17;;;1.30;;
32535;SDS011;18974;50.838;4.636;2022-07-29T15:35:11;2.55;;;1.35;;
32535;SDS011;18974;50.838;4.636;2022-07-29T15:37:37;3.65;;;1.30;;
32535;SDS011;18974;50.838;4.636;2022-07-29T15:40:04;1.45;;;1.02;;
32535;SDS011;18974;50.838;4.636;2022-07-29T15:42:31;6.32;;;1.40;;
32535;SDS011;18974;50.838;4.636;2022-07-29T15:44:57;5.80;;;1.48;;
32535;SDS011;18974;50.838;4.636;2022-07-29T15:47:27;4.85;;;1.80;;
32535;SDS011;18974;50.838;4.636;2022-07-29T15:49:53;12.40;;;2.45;;
32535;SDS011;18974;50.838;4.636;2022-07-29T15:52:19;5.72;;;1.25;;
32535;SDS011;18974;50.838;4.636;2022-07-29T15:54:45;4.15;;;1.60;;
32535;SDS011;18974;50.838;4.636;2022-07-29T15:57:11;2.67;;;1.33;;
32535;SDS011;18974;50.838;4.636;2022-07-29T15:59:36;3.80;;;1.00;;
32535;SDS011;18974;50.838;4.636;2022-07-29T16:02:02;9.00;;;1.50;;
32535;SDS011;18974;50.838;4.636;2022-07-29T16:04:29;2.38;;;1.25;;
32535;SDS011;18974;50.838;4.636;2022-07-29T16:06:56;2.90;;;1.20;;
32535;SDS011;18974;50.838;4.636;2022-07-29T16:09:22;1.75;;;1.20;;
32535;SDS011;18974;50.838;4.636;2022-07-29T16:11:48;3.47;;;1.27;;